Список аэропортов
Фактическая погода:

15 августа, 23:30
Температура: +13°C (+12.1*)
Ветер: сев.-западный 3 м/с
Давление: *760 мм
Без существ. явл.
Время (МСК)Темп. СВетерВлажностьДавлениеОблачностьОсадки
21:00+17З, 4 м/с60%1013 гПас прояснениями
22:00+17З, 4 м/с61%1013 гПас прояснениями
23:00+15З, 4 м/с66%1013 гПамалооблачно
16 августа
00:00+14З, 3 м/с72%1013 гПаясно
01:00+13З, 3 м/с77%1014 гПаясно
02:00+12ЮЗ, 3 м/с84%1014 гПас прояснениями
03:00+12ЮЗ, 3 м/с89%1015 гПамалооблачно
04:00+11ЮЗ, 3 м/с90%1015 гПамалооблачно
05:00+12ЮЗ, 2 м/с86%1015 гПаясно
06:00+14ЮЗ, 2 м/с73%1015 гПаоблачно
07:00+17ЮЗ, 2 м/с62%1015 гПаясно
08:00+19ЮЗ, 2 м/с53%1014 гПаясно
09:00+21З, 3 м/с43%1014 гПамалооблачно
10:00+22ЮЗ, 4 м/с39%1014 гПаясно
11:00+22ЮЗ, 3 м/с38%1013 гПамалооблачно
12:00+23ЮЗ, 3 м/с38%1013 гПас прояснениями
13:00+22Ю, 3 м/с43%1013 гПаоблачносл. дождь
14:00+20ЮЗ, 3 м/с52%1013 гПаоблачнодождь
15:00+19Ю, 2 м/с67%1013 гПаоблачнодождь
16:00+18ЮВ, 2 м/с76%1012 гПаоблачно
17:00+18ЮВ, 3 м/с75%1012 гПаоблачно
18:00+18ЮВ, 3 м/с73%1011 гПаоблачно
19:00+18ЮВ, 4 м/с67%1011 гПаоблачно
20:00+18ЮВ, 4 м/с64%1010 гПаоблачно
21:00+17ЮВ, 4 м/с72%1010 гПаоблачно
22:00+17ЮВ, 4 м/с78%1009 гПаоблачно
23:00+16ЮВ, 3 м/с84%1008 гПаоблачно
17 августа
00:00+16Ю, 2 м/с85%1008 гПаоблачно
01:00+15ЮВ, 2 м/с90%1008 гПамалооблачно
02:00+14Ю, 3 м/с92%1008 гПас прояснениями
03:00+15ЮЗ, 4 м/с94%1008 гПаоблачно
04:00+15Ю, 3 м/с97%1008 гПас прояснениями
05:00+16Ю, 3 м/с93%1007 гПаоблачно
06:00+16ЮЗ, 4 м/с91%1007 гПаоблачно
07:00+16ЮЗ, 5 м/с90%1008 гПаоблачносл. дождь
08:00+16ЮЗ, 5 м/с88%1008 гПаоблачносл. дождь
09:00+16ЮЗ, 5 м/с89%1008 гПаоблачносл. дождь
10:00+14З, 6 м/с93%1009 гПаоблачносл. дождь
11:00+13З, 5 м/с94%1009 гПаоблачносл. дождь
12:00+14З, 6 м/с88%1010 гПаоблачносл. дождь
13:00+13СЗ, 7 м/с83%1011 гПаоблачносл. дождь
14:00+12СЗ, 6 м/с78%1012 гПаоблачно
15:00+12З, 7 м/с77%1013 гПаоблачносл. дождь
16:00+13СЗ, 7 м/с72%1014 гПас прояснениями
17:00+13СЗ, 6 м/с69%1014 гПаоблачно
18:00+12З, 4 м/с75%1015 гПаоблачносл. дождь
19:00+12З, 3 м/с81%1016 гПамалооблачно
20:00+11З, 2 м/с92%1016 гПас прояснениями
21:00+11З, 3 м/с95%1016 гПамалооблачно